Bow Victor — LAHC2 — position and weather

sailwx.info

Track history (hours):
 
Tides and Currents Weather Stations Pressure Air Temp Water Temp Dewpoint Dewpoint Depression Visibility Wind Speed Wind Dir Waves Ship Positions

Bow Victor

Last reported at 2014-Dec-09 20:31 UTC. Time now 2014-Dec-19 22:45 UTC.
Position N 50°31' W 000°04'.
Warning: this ship's position is 10 days out of date.

Length 183 m; draft 10.1 m.

Type: Tanker. MMSI: 257873000.

Date/timePositionNaut miles runAvg speedWind from/ knotsBaromVisibWave heightAir tempDewpointWater temp
2014-Dec-09 20:31N 50°31' W 000°04'1310.5
2014-Dec-09 19:16N 50°35' E 000°16'811.9
2014-Dec-09 18:34N 50°37' E 000°29'1212.4
2014-Dec-09 17:33N 50°43' E 000°46'2411.8
2014-Dec-09 15:34N 50°58' E 001°15'1010.0
2014-Dec-09 14:34N 51°04' E 001°27'9 9.3
2014-Dec-09 13:33N 51°10' E 001°39'1010.1
2014-Dec-09 12:33N 51°18' E 001°49'1212.5
2014-Dec-09 11:34N 51°28' E 001°60'1414.2
2014-Dec-09 10:33N 51°39' E 002°15'36011.9
2014-Dec-08 04:25N 56°52' E 007°19'11310.4
2014-Dec-07 17:32N 57°47' E 010°22'1211.3
2014-Dec-07 16:29N 57°46' E 010°44'8 8.3
2014-Dec-07 15:33N 57°40' E 010°36'1 0.2
2014-Dec-07 10:22N 57°41' E 010°38'910.8
2014-Dec-07 09:31N 57°37' E 010°54'1111.9
2014-Dec-07 08:33N 57°33' E 011°14'1212.2
2014-Dec-07 07:33N 57°24' E 011°29'1312.5
2014-Dec-07 06:32N 57°12' E 011°37'1212.7
2014-Dec-07 05:33N 57°00' E 011°46'1512.6
2014-Dec-07 04:24N 56°46' E 011°53'135 9.4
2014-Dec-06 14:03N 54°31' E 011°27'612.1
2014-Dec-06 13:32N 54°29' E 011°38'1111.6
2014-Dec-06 12:33N 54°27' E 011°57'10 9.8
2014-Dec-06 11:33N 54°30' E 012°13'5911.0
2014-Dec-06 06:11N 55°00' E 013°40'812.1
2014-Dec-06 05:33N 55°02' E 013°53'1211.9
2014-Dec-06 04:33N 55°09' E 014°10'1212.5
2014-Dec-06 03:33N 55°18' E 014°25'1212.1
2014-Dec-06 02:33N 55°27' E 014°40'1212.4
2014-Dec-06 01:33N 55°32' E 014°60'1312.6
2014-Dec-06 00:29N 55°38' E 015°22'16611.6
2014-Dec-05 10:14N 56°59' E 019°42'18 8.7
2014-Dec-05 08:09N 57°17' E 019°46'16712.3
2014-Dec-04 18:33N 59°33' E 022°50'1313.0
2014-Dec-04 17:32N 59°37' E 023°14'1612.8
2014-Dec-04 16:19N 59°42' E 023°44'1012.8
2014-Dec-04 15:33N 59°45' E 024°02'1312.9
2014-Dec-04 14:33N 59°48' E 024°27'  
2014-Nov-30 08:33N 59°58' E 026°29'2914.0
2014-Nov-30 06:27N 59°51' E 025°32'1614.0
2014-Nov-30 05:17N 59°48' E 025°00'1013.9
2014-Nov-30 04:33N 59°46' E 024°41'2813.8
2014-Nov-30 02:33N 59°38' E 023°48'  
Track history (hours):
 
Tides and Currents Weather Stations Pressure Air Temp Water Temp Dewpoint Dewpoint Depression Visibility Wind Speed Wind Dir Waves Ship Positions

Bow Victor

Last reported at 2014-Dec-09 20:31 UTC. Time now 2014-Dec-19 22:45 UTC.
Position N 50°31' W 000°04'.
Warning: this ship's position is 10 days out of date.

Length 183 m; draft 10.1 m.

Type: Tanker. MMSI: 257873000.

Date/timePositionNaut miles runAvg speedWind from/ knotsBaromVisibWave heightAir tempDewpointWater temp
2014-Dec-09 20:31N 50°31' W 000°04'1310.5
2014-Dec-09 19:16N 50°35' E 000°16'811.9
2014-Dec-09 18:34N 50°37' E 000°29'1212.4
2014-Dec-09 17:33N 50°43' E 000°46'2411.8
2014-Dec-09 15:34N 50°58' E 001°15'1010.0
2014-Dec-09 14:34N 51°04' E 001°27'9 9.3
2014-Dec-09 13:33N 51°10' E 001°39'1010.1
2014-Dec-09 12:33N 51°18' E 001°49'1212.5
2014-Dec-09 11:34N 51°28' E 001°60'1414.2
2014-Dec-09 10:33N 51°39' E 002°15'36011.9
2014-Dec-08 04:25N 56°52' E 007°19'11310.4
2014-Dec-07 17:32N 57°47' E 010°22'1211.3
2014-Dec-07 16:29N 57°46' E 010°44'8 8.3
2014-Dec-07 15:33N 57°40' E 010°36'1 0.2
2014-Dec-07 10:22N 57°41' E 010°38'910.8
2014-Dec-07 09:31N 57°37' E 010°54'1111.9
2014-Dec-07 08:33N 57°33' E 011°14'1212.2
2014-Dec-07 07:33N 57°24' E 011°29'1312.5
2014-Dec-07 06:32N 57°12' E 011°37'1212.7
2014-Dec-07 05:33N 57°00' E 011°46'1512.6
2014-Dec-07 04:24N 56°46' E 011°53'135 9.4
2014-Dec-06 14:03N 54°31' E 011°27'612.1
2014-Dec-06 13:32N 54°29' E 011°38'1111.6
2014-Dec-06 12:33N 54°27' E 011°57'10 9.8
2014-Dec-06 11:33N 54°30' E 012°13'5911.0
2014-Dec-06 06:11N 55°00' E 013°40'812.1
2014-Dec-06 05:33N 55°02' E 013°53'1211.9
2014-Dec-06 04:33N 55°09' E 014°10'1212.5
2014-Dec-06 03:33N 55°18' E 014°25'1212.1
2014-Dec-06 02:33N 55°27' E 014°40'1212.4
2014-Dec-06 01:33N 55°32' E 014°60'1312.6
2014-Dec-06 00:29N 55°38' E 015°22'16611.6
2014-Dec-05 10:14N 56°59' E 019°42'18 8.7
2014-Dec-05 08:09N 57°17' E 019°46'16712.3
2014-Dec-04 18:33N 59°33' E 022°50'1313.0
2014-Dec-04 17:32N 59°37' E 023°14'1612.8
2014-Dec-04 16:19N 59°42' E 023°44'1012.8
2014-Dec-04 15:33N 59°45' E 024°02'1312.9
2014-Dec-04 14:33N 59°48' E 024°27'  
2014-Nov-30 08:33N 59°58' E 026°29'2914.0
2014-Nov-30 06:27N 59°51' E 025°32'1614.0
2014-Nov-30 05:17N 59°48' E 025°00'1013.9
2014-Nov-30 04:33N 59°46' E 024°41'2813.8
2014-Nov-30 02:33N 59°38' E 023°48'  

Dump ship's entire track history